sensor_id;sensor_type;location;lat;lon;timestamp;pressure;altitude;pressure_sealevel;temperature;humidity
72560;BME280;62987;52.382;9.752;2022-10-22T00:01:15;100326.34;;;14.23;86.59
72560;BME280;62987;52.382;9.752;2022-10-22T00:03:43;100323.59;;;14.24;87.02
72560;BME280;62987;52.382;9.752;2022-10-22T00:06:11;100324.63;;;14.22;86.70
72560;BME280;62987;52.382;9.752;2022-10-22T00:08:39;100319.97;;;14.25;87.55
72560;BME280;62987;52.382;9.752;2022-10-22T00:11:09;100318.03;;;14.27;87.16
72560;BME280;62987;52.382;9.752;2022-10-22T00:13:38;100322.13;;;14.33;86.89
72560;BME280;62987;52.382;9.752;2022-10-22T00:16:07;100314.09;;;14.33;86.62
72560;BME280;62987;52.382;9.752;2022-10-22T00:18:35;100314.88;;;14.35;86.75
72560;BME280;62987;52.382;9.752;2022-10-22T00:21:05;100329.41;;;14.31;86.63
72560;BME280;62987;52.382;9.752;2022-10-22T00:23:33;100335.78;;;14.28;86.76
72560;BME280;62987;52.382;9.752;2022-10-22T00:26:01;100353.09;;;14.23;87.78
72560;BME280;62987;52.382;9.752;2022-10-22T00:28:29;100340.50;;;14.25;87.70
72560;BME280;62987;52.382;9.752;2022-10-22T00:31:00;100347.44;;;14.27;88.41
72560;BME280;62987;52.382;9.752;2022-10-22T00:33:28;100355.09;;;14.33;88.43
72560;BME280;62987;52.382;9.752;2022-10-22T00:35:56;100349.84;;;14.32;88.38
72560;BME280;62987;52.382;9.752;2022-10-22T00:38:25;100329.41;;;14.31;87.27
72560;BME280;62987;52.382;9.752;2022-10-22T00:40:53;100338.38;;;14.30;88.03
72560;BME280;62987;52.382;9.752;2022-10-22T00:43:21;100333.97;;;14.29;88.13
72560;BME280;62987;52.382;9.752;2022-10-22T00:45:49;100322.50;;;14.27;87.50
72560;BME280;62987;52.382;9.752;2022-10-22T00:48:21;100320.59;;;14.29;87.17
72560;BME280;62987;52.382;9.752;2022-10-22T00:50:51;100315.47;;;14.26;86.80
72560;BME280;62987;52.382;9.752;2022-10-22T00:53:23;100329.59;;;14.28;87.68
72560;BME280;62987;52.382;9.752;2022-10-22T00:55:53;100333.41;;;14.24;87.44
72560;BME280;62987;52.382;9.752;2022-10-22T00:58:24;100332.66;;;14.22;87.09
72560;BME280;62987;52.382;9.752;2022-10-22T01:00:53;100333.81;;;14.18;87.58
72560;BME280;62987;52.382;9.752;2022-10-22T01:03:23;100339.53;;;14.12;87.34
72560;BME280;62987;52.382;9.752;2022-10-22T01:05:55;100317.59;;;13.92;87.39
72560;BME280;62987;52.382;9.752;2022-10-22T01:08:27;100335.53;;;14.05;87.70
72560;BME280;62987;52.382;9.752;2022-10-22T01:11:07;100332.38;;;13.98;87.96
72560;BME280;62987;52.382;9.752;2022-10-22T01:13:47;100335.34;;;13.93;88.25
72560;BME280;62987;52.382;9.752;2022-10-22T01:16:19;100325.47;;;13.94;88.14
72560;BME280;62987;52.382;9.752;2022-10-22T01:18:55;100335.13;;;13.96;88.14
72560;BME280;62987;52.382;9.752;2022-10-22T01:21:31;100337.91;;;13.95;87.52
72560;BME280;62987;52.382;9.752;2022-10-22T01:24:14;100340.50;;;13.96;88.07
72560;BME280;62987;52.382;9.752;2022-10-22T01:26:56;100338.97;;;13.92;88.67
72560;BME280;62987;52.382;9.752;2022-10-22T01:29:31;100332.94;;;13.89;88.12
72560;BME280;62987;52.382;9.752;2022-10-22T01:32:04;100330.81;;;13.94;87.83
72560;BME280;62987;52.382;9.752;2022-10-22T01:34:34;100321.13;;;13.93;87.70
72560;BME280;62987;52.382;9.752;2022-10-22T01:37:05;100339.13;;;13.89;88.73
72560;BME280;62987;52.382;9.752;2022-10-22T01:39:35;100336.88;;;13.97;88.37
72560;BME280;62987;52.382;9.752;2022-10-22T01:42:05;100336.28;;;13.92;89.24
72560;BME280;62987;52.382;9.752;2022-10-22T01:44:35;100346.41;;;14.01;88.71
72560;BME280;62987;52.382;9.752;2022-10-22T01:47:13;100349.06;;;14.01;89.03
72560;BME280;62987;52.382;9.752;2022-10-22T01:52:57;100336.19;;;14.08;88.50
72560;BME280;62987;52.382;9.752;2022-10-22T01:55:32;100329.03;;;14.09;88.05
72560;BME280;62987;52.382;9.752;2022-10-22T01:58:14;100323.97;;;14.04;87.79
72560;BME280;62987;52.382;9.752;2022-10-22T02:00:54;100325.00;;;14.01;88.20
72560;BME280;62987;52.382;9.752;2022-10-22T02:03:27;100327.91;;;13.98;88.17
72560;BME280;62987;52.382;9.752;2022-10-22T02:06:00;100334.09;;;13.99;87.61
72560;BME280;62987;52.382;9.752;2022-10-22T02:08:32;100326.34;;;13.94;87.22
72560;BME280;62987;52.382;9.752;2022-10-22T02:11:03;100317.97;;;13.86;87.30
72560;BME280;62987;52.382;9.752;2022-10-22T02:13:34;100314.03;;;13.78;87.12
72560;BME280;62987;52.382;9.752;2022-10-22T02:16:07;100319.94;;;13.69;87.20
72560;BME280;62987;52.382;9.752;2022-10-22T02:18:39;100333.03;;;13.73;87.77
72560;BME280;62987;52.382;9.752;2022-10-22T02:21:08;100325.97;;;13.72;87.74
72560;BME280;62987;52.382;9.752;2022-10-22T02:23:37;100340.84;;;13.76;87.38
72560;BME280;62987;52.382;9.752;2022-10-22T02:26:10;100309.81;;;13.59;87.39
72560;BME280;62987;52.382;9.752;2022-10-22T02:28:45;100322.22;;;13.75;88.22
72560;BME280;62987;52.382;9.752;2022-10-22T02:31:20;100310.09;;;13.69;87.54
72560;BME280;62987;52.382;9.752;2022-10-22T02:33:53;100323.88;;;13.77;87.68
72560;BME280;62987;52.382;9.752;2022-10-22T02:36:24;100335.13;;;13.82;87.79
72560;BME280;62987;52.382;9.752;2022-10-22T02:38:53;100333.50;;;13.80;88.50
72560;BME280;62987;52.382;9.752;2022-10-22T02:41:21;100341.81;;;13.89;87.99
72560;BME280;62987;52.382;9.752;2022-10-22T02:43:53;100337.41;;;13.88;87.99
72560;BME280;62987;52.382;9.752;2022-10-22T02:46:23;100338.97;;;13.92;87.90
72560;BME280;62987;52.382;9.752;2022-10-22T02:48:52;100328.66;;;13.86;87.34
72560;BME280;62987;52.382;9.752;2022-10-22T02:51:20;100322.53;;;13.84;87.80
72560;BME280;62987;52.382;9.752;2022-10-22T02:53:48;100339.13;;;13.89;87.79
72560;BME280;62987;52.382;9.752;2022-10-22T02:56:15;100312.50;;;13.74;88.06
72560;BME280;62987;52.382;9.752;2022-10-22T02:58:43;100348.03;;;13.90;87.32
72560;BME280;62987;52.382;9.752;2022-10-22T03:01:12;100353.84;;;13.82;88.93
72560;BME280;62987;52.382;9.752;2022-10-22T03:03:43;100361.69;;;13.85;88.19
72560;BME280;62987;52.382;9.752;2022-10-22T03:06:11;100368.47;;;13.91;88.40
72560;BME280;62987;52.382;9.752;2022-10-22T03:08:39;100365.59;;;13.94;87.70
72560;BME280;62987;52.382;9.752;2022-10-22T03:11:07;100360.16;;;13.95;87.98
72560;BME280;62987;52.382;9.752;2022-10-22T03:13:35;100346.50;;;14.00;87.60
72560;BME280;62987;52.382;9.752;2022-10-22T03:16:03;100351.00;;;13.99;87.65
72560;BME280;62987;52.382;9.752;2022-10-22T03:18:31;100355.00;;;13.92;87.35
72560;BME280;62987;52.382;9.752;2022-10-22T03:21:06;100353.94;;;13.95;87.56
72560;BME280;62987;52.382;9.752;2022-10-22T03:23:37;100358.81;;;13.88;88.53
72560;BME280;62987;52.382;9.752;2022-10-22T03:26:06;100357.38;;;13.83;87.61
72560;BME280;62987;52.382;9.752;2022-10-22T03:28:35;100365.31;;;13.84;88.00
72560;BME280;62987;52.382;9.752;2022-10-22T03:31:03;100368.84;;;13.85;87.72
72560;BME280;62987;52.382;9.752;2022-10-22T03:33:31;100353.25;;;13.77;87.34
72560;BME280;62987;52.382;9.752;2022-10-22T03:35:59;100355.16;;;13.75;87.59
72560;BME280;62987;52.382;9.752;2022-10-22T03:38:29;100363.38;;;13.72;87.64
72560;BME280;62987;52.382;9.752;2022-10-22T03:40:57;100357.34;;;13.69;87.28
72560;BME280;62987;52.382;9.752;2022-10-22T03:43:25;100359.06;;;13.70;87.46
72560;BME280;62987;52.382;9.752;2022-10-22T03:45:53;100326.38;;;13.50;88.85
72560;BME280;62987;52.382;9.752;2022-10-22T03:48:21;100353.56;;;13.73;87.99
72560;BME280;62987;52.382;9.752;2022-10-22T03:50:49;100359.38;;;13.79;87.65
72560;BME280;62987;52.382;9.752;2022-10-22T03:53:17;100373.88;;;13.75;88.37
72560;BME280;62987;52.382;9.752;2022-10-22T03:55:46;100367.97;;;13.84;88.24
72560;BME280;62987;52.382;9.752;2022-10-22T03:58:14;100375.72;;;13.89;88.52
72560;BME280;62987;52.382;9.752;2022-10-22T04:00:42;100383.47;;;13.93;88.63
72560;BME280;62987;52.382;9.752;2022-10-22T04:03:10;100386.88;;;13.95;88.53
72560;BME280;62987;52.382;9.752;2022-10-22T04:05:38;100384.03;;;13.98;88.85
72560;BME280;62987;52.382;9.752;2022-10-22T04:08:06;100383.28;;;14.11;88.47
72560;BME280;62987;52.382;9.752;2022-10-22T04:10:34;100380.16;;;14.18;88.05
72560;BME280;62987;52.382;9.752;2022-10-22T04:13:04;100387.88;;;14.23;87.58
72560;BME280;62987;52.382;9.752;2022-10-22T04:15:31;100344.78;;;13.99;87.19
72560;BME280;62987;52.382;9.752;2022-10-22T04:17:59;100386.53;;;14.16;87.05
72560;BME280;62987;52.382;9.752;2022-10-22T04:20:27;100382.50;;;14.09;87.66
72560;BME280;62987;52.382;9.752;2022-10-22T04:22:55;100389.91;;;14.19;87.39
72560;BME280;62987;52.382;9.752;2022-10-22T04:25:23;100384.81;;;14.29;87.29
72560;BME280;62987;52.382;9.752;2022-10-22T04:27:51;100391.69;;;14.33;86.48
72560;BME280;62987;52.382;9.752;2022-10-22T04:30:20;100397.25;;;14.30;87.19
72560;BME280;62987;52.382;9.752;2022-10-22T04:32:48;100392.53;;;14.33;86.90
72560;BME280;62987;52.382;9.752;2022-10-22T04:35:16;100388.91;;;14.34;86.69
72560;BME280;62987;52.382;9.752;2022-10-22T04:37:44;100386.34;;;14.33;86.79
72560;BME280;62987;52.382;9.752;2022-10-22T04:40:12;100409.94;;;14.26;87.37
72560;BME280;62987;52.382;9.752;2022-10-22T04:42:40;100401.53;;;14.32;87.18
72560;BME280;62987;52.382;9.752;2022-10-22T04:45:08;100411.28;;;14.33;87.19
72560;BME280;62987;52.382;9.752;2022-10-22T04:47:38;100414.56;;;14.38;87.16
72560;BME280;62987;52.382;9.752;2022-10-22T04:50:07;100408.72;;;14.46;86.75
72560;BME280;62987;52.382;9.752;2022-10-22T04:52:35;100417.81;;;14.44;86.75
72560;BME280;62987;52.382;9.752;2022-10-22T04:55:03;100421.34;;;14.44;86.54
72560;BME280;62987;52.382;9.752;2022-10-22T04:57:31;100413.91;;;14.49;86.18
72560;BME280;62987;52.382;9.752;2022-10-22T04:59:59;100409.59;;;14.47;86.36
72560;BME280;62987;52.382;9.752;2022-10-22T05:02:27;100400.13;;;14.41;86.12
72560;BME280;62987;52.382;9.752;2022-10-22T05:04:57;100406.59;;;14.37;86.13
72560;BME280;62987;52.382;9.752;2022-10-22T05:07:24;100397.03;;;14.33;86.28
72560;BME280;62987;52.382;9.752;2022-10-22T05:09:53;100400.59;;;14.19;86.83
72560;BME280;62987;52.382;9.752;2022-10-22T05:12:21;100412.13;;;14.20;86.18
72560;BME280;62987;52.382;9.752;2022-10-22T05:14:48;100403.63;;;14.13;86.33
72560;BME280;62987;52.382;9.752;2022-10-22T05:17:16;100396.75;;;14.09;86.13
72560;BME280;62987;52.382;9.752;2022-10-22T05:19:44;100411.94;;;14.09;86.64
72560;BME280;62987;52.382;9.752;2022-10-22T05:22:13;100412.13;;;14.06;86.51
72560;BME280;62987;52.382;9.752;2022-10-22T05:24:41;100416.72;;;14.04;87.37
72560;BME280;62987;52.382;9.752;2022-10-22T05:27:09;100415.84;;;14.03;87.28
72560;BME280;62987;52.382;9.752;2022-10-22T05:29:38;100414.97;;;14.02;86.35
72560;BME280;62987;52.382;9.752;2022-10-22T05:32:05;100413.09;;;14.05;87.10
72560;BME280;62987;52.382;9.752;2022-10-22T05:34:34;100414.81;;;14.06;86.63
72560;BME280;62987;52.382;9.752;2022-10-22T05:37:01;100414.97;;;14.02;86.76
72560;BME280;62987;52.382;9.752;2022-10-22T05:39:31;100423.09;;;14.01;87.10
72560;BME280;62987;52.382;9.752;2022-10-22T05:42:02;100407.78;;;13.89;87.25
72560;BME280;62987;52.382;9.752;2022-10-22T05:44:30;100423.94;;;14.01;86.21
72560;BME280;62987;52.382;9.752;2022-10-22T05:46:58;100420.50;;;13.85;86.51
72560;BME280;62987;52.382;9.752;2022-10-22T05:49:26;100428.13;;;13.77;87.24
72560;BME280;62987;52.382;9.752;2022-10-22T05:51:54;100437.00;;;13.78;87.59
72560;BME280;62987;52.382;9.752;2022-10-22T05:54:22;100440.25;;;13.83;87.93
72560;BME280;62987;52.382;9.752;2022-10-22T05:56:51;100438.53;;;13.82;88.40
72560;BME280;62987;52.382;9.752;2022-10-22T05:59:19;100434.03;;;13.82;88.31
72560;BME280;62987;52.382;9.752;2022-10-22T06:01:47;100448.19;;;13.84;87.99
72560;BME280;62987;52.382;9.752;2022-10-22T06:04:15;100448.19;;;13.84;88.10
72560;BME280;62987;52.382;9.752;2022-10-22T06:06:44;100451.81;;;13.83;88.48
72560;BME280;62987;52.382;9.752;2022-10-22T06:09:16;100449.91;;;13.85;87.72
72560;BME280;62987;52.382;9.752;2022-10-22T06:11:46;100452.22;;;13.91;87.55
72560;BME280;62987;52.382;9.752;2022-10-22T06:14:16;100459.16;;;13.94;87.44
72560;BME280;62987;52.382;9.752;2022-10-22T06:16:44;100462.22;;;13.88;87.71
72560;BME280;62987;52.382;9.752;2022-10-22T06:19:14;100466.91;;;13.84;87.91
72560;BME280;62987;52.382;9.752;2022-10-22T06:21:43;100466.44;;;13.92;87.57
72560;BME280;62987;52.382;9.752;2022-10-22T06:24:11;100460.41;;;13.88;87.11
72560;BME280;62987;52.382;9.752;2022-10-22T06:26:40;100458.97;;;13.83;87.34
72560;BME280;62987;52.382;9.752;2022-10-22T06:29:08;100481.44;;;13.94;86.80
72560;BME280;62987;52.382;9.752;2022-10-22T06:31:38;100488.50;;;13.95;87.22
72560;BME280;62987;52.382;9.752;2022-10-22T06:34:09;100487.38;;;13.99;87.41
72560;BME280;62987;52.382;9.752;2022-10-22T06:36:38;100489.13;;;14.15;87.06
72560;BME280;62987;52.382;9.752;2022-10-22T06:39:12;100485.69;;;14.13;87.07
72560;BME280;62987;52.382;9.752;2022-10-22T06:41:40;100503.19;;;14.18;86.94
72560;BME280;62987;52.382;9.752;2022-10-22T06:44:12;100502.59;;;14.13;87.30
72560;BME280;62987;52.382;9.752;2022-10-22T06:46:42;100501.91;;;14.10;87.41
72560;BME280;62987;52.382;9.752;2022-10-22T06:49:12;100510.66;;;14.27;87.22
72560;BME280;62987;52.382;9.752;2022-10-22T06:51:40;100506.00;;;14.31;86.45
72560;BME280;62987;52.382;9.752;2022-10-22T06:54:09;100509.75;;;14.43;86.39
72560;BME280;62987;52.382;9.752;2022-10-22T06:56:37;100513.47;;;14.40;86.40
72560;BME280;62987;52.382;9.752;2022-10-22T06:59:05;100520.03;;;14.34;86.28
72560;BME280;62987;52.382;9.752;2022-10-22T07:01:34;100519.94;;;14.36;86.33
72560;BME280;62987;52.382;9.752;2022-10-22T07:04:04;100526.25;;;14.35;86.57
72560;BME280;62987;52.382;9.752;2022-10-22T07:06:32;100531.66;;;14.49;86.28
72560;BME280;62987;52.382;9.752;2022-10-22T07:09:00;100533.75;;;14.44;86.29
72560;BME280;62987;52.382;9.752;2022-10-22T07:11:30;100534.03;;;14.54;86.06
72560;BME280;62987;52.382;9.752;2022-10-22T07:14:04;100538.16;;;14.59;85.90
72560;BME280;62987;52.382;9.752;2022-10-22T07:16:32;100540.09;;;14.57;85.68
72560;BME280;62987;52.382;9.752;2022-10-22T07:19:01;100538.38;;;14.70;85.48
72560;BME280;62987;52.382;9.752;2022-10-22T07:21:31;100545.72;;;14.67;85.32
72560;BME280;62987;52.382;9.752;2022-10-22T07:23:59;100538.34;;;14.85;84.86
72560;BME280;62987;52.382;9.752;2022-10-22T07:26:28;100542.97;;;14.97;84.67
72560;BME280;62987;52.382;9.752;2022-10-22T07:28:58;100541.59;;;15.04;84.37
72560;BME280;62987;52.382;9.752;2022-10-22T07:31:26;100546.94;;;15.18;83.83
72560;BME280;62987;52.382;9.752;2022-10-22T07:33:55;100544.88;;;15.09;84.22
72560;BME280;62987;52.382;9.752;2022-10-22T07:36:23;100544.47;;;15.29;83.40
72560;BME280;62987;52.382;9.752;2022-10-22T07:38:57;100544.47;;;15.29;83.47
72560;BME280;62987;52.382;9.752;2022-10-22T07:41:27;100544.09;;;15.21;83.78
72560;BME280;62987;52.382;9.752;2022-10-22T07:43:55;100544.00;;;15.23;83.49
72560;BME280;62987;52.382;9.752;2022-10-22T07:46:24;100548.28;;;15.25;83.28
72560;BME280;62987;52.382;9.752;2022-10-22T07:48:52;100550.75;;;15.42;82.98
72560;BME280;62987;52.382;9.752;2022-10-22T07:51:20;100549.56;;;15.75;82.45
72560;BME280;62987;52.382;9.752;2022-10-22T07:53:48;100539.38;;;15.80;81.44
72560;BME280;62987;52.382;9.752;2022-10-22T07:56:18;100549.47;;;15.89;81.42
72560;BME280;62987;52.382;9.752;2022-10-22T07:58:46;100544.59;;;16.08;80.41
72560;BME280;62987;52.382;9.752;2022-10-22T08:01:14;100551.59;;;16.63;78.51
72560;BME280;62987;52.382;9.752;2022-10-22T08:03:42;100556.34;;;16.97;77.49
72560;BME280;62987;52.382;9.752;2022-10-22T08:06:11;100549.41;;;19.84;65.92
72560;BME280;62987;52.382;9.752;2022-10-22T08:08:40;100558.78;;;22.05;57.75
72560;BME280;62987;52.382;9.752;2022-10-22T08:11:09;100546.63;;;23.23;53.16
72560;BME280;62987;52.382;9.752;2022-10-22T08:13:39;100559.25;;;22.29;56.46
72560;BME280;62987;52.382;9.752;2022-10-22T08:16:11;100563.13;;;20.56;62.11
72560;BME280;62987;52.382;9.752;2022-10-22T08:18:40;100568.75;;;22.43;56.91
72560;BME280;62987;52.382;9.752;2022-10-22T08:21:08;100551.59;;;23.65;52.42
72560;BME280;62987;52.382;9.752;2022-10-22T08:23:36;100563.91;;;24.40;50.80
72560;BME280;62987;52.382;9.752;2022-10-22T08:26:04;100570.84;;;25.21;48.10
72560;BME280;62987;52.382;9.752;2022-10-22T08:28:33;100559.53;;;24.64;49.64
72560;BME280;62987;52.382;9.752;2022-10-22T08:31:06;100568.72;;;22.82;54.49
72560;BME280;62987;52.382;9.752;2022-10-22T08:33:34;100572.75;;;22.87;53.40
72560;BME280;62987;52.382;9.752;2022-10-22T08:36:05;100569.09;;;24.51;49.71
72560;BME280;62987;52.382;9.752;2022-10-22T08:38:33;100572.16;;;22.84;54.38
72560;BME280;62987;52.382;9.752;2022-10-22T08:41:07;100573.59;;;21.42;58.02
72560;BME280;62987;52.382;9.752;2022-10-22T08:43:43;100581.03;;;20.36;63.64
72560;BME280;62987;52.382;9.752;2022-10-22T08:46:28;100573.53;;;19.42;66.50
72560;BME280;62987;52.382;9.752;2022-10-22T08:49:02;100571.69;;;19.21;68.72
72560;BME280;62987;52.382;9.752;2022-10-22T08:51:33;100568.63;;;19.03;68.38
72560;BME280;62987;52.382;9.752;2022-10-22T08:54:15;100575.47;;;18.96;68.67
72560;BME280;62987;52.382;9.752;2022-10-22T08:56:50;100574.34;;;18.76;69.14
72560;BME280;62987;52.382;9.752;2022-10-22T08:59:26;100586.38;;;18.83;69.36
72560;BME280;62987;52.382;9.752;2022-10-22T09:01:57;100579.91;;;18.97;69.48
72560;BME280;62987;52.382;9.752;2022-10-22T09:04:30;100586.25;;;18.96;69.43
72560;BME280;62987;52.382;9.752;2022-10-22T09:07:00;100581.84;;;19.06;69.44
72560;BME280;62987;52.382;9.752;2022-10-22T09:09:31;100587.19;;;19.95;65.68
72560;BME280;62987;52.382;9.752;2022-10-22T09:12:02;100586.72;;;19.79;66.51
72560;BME280;62987;52.382;9.752;2022-10-22T09:14:30;100583.06;;;19.80;67.25
72560;BME280;62987;52.382;9.752;2022-10-22T09:17:12;100586.50;;;21.29;62.53
72560;BME280;62987;52.382;9.752;2022-10-22T09:19:51;100579.41;;;23.94;53.33
72560;BME280;62987;52.382;9.752;2022-10-22T09:22:32;100575.44;;;23.71;52.48
72560;BME280;62987;52.382;9.752;2022-10-22T09:25:17;100586.44;;;24.14;52.64
72560;BME280;62987;52.382;9.752;2022-10-22T09:27:47;100589.88;;;22.68;56.51
72560;BME280;62987;52.382;9.752;2022-10-22T09:30:17;100585.34;;;22.40;57.88
72560;BME280;62987;52.382;9.752;2022-10-22T09:32:47;100591.88;;;22.66;56.52
72560;BME280;62987;52.382;9.752;2022-10-22T09:35:21;100593.31;;;22.13;57.07
72560;BME280;62987;52.382;9.752;2022-10-22T09:37:52;100604.16;;;22.61;55.73
72560;BME280;62987;52.382;9.752;2022-10-22T09:40:22;100594.13;;;24.72;49.17
72560;BME280;62987;52.382;9.752;2022-10-22T09:42:50;100594.06;;;24.28;50.82
72560;BME280;62987;52.382;9.752;2022-10-22T09:45:19;100593.50;;;25.30;47.42
72560;BME280;62987;52.382;9.752;2022-10-22T09:48:02;100595.94;;;25.75;45.61
72560;BME280;62987;52.382;9.752;2022-10-22T09:50:40;100599.94;;;24.77;49.64
72560;BME280;62987;52.382;9.752;2022-10-22T09:53:16;100606.78;;;24.81;49.40
72560;BME280;62987;52.382;9.752;2022-10-22T09:55:49;100610.75;;;24.16;50.90
72560;BME280;62987;52.382;9.752;2022-10-22T09:58:18;100611.16;;;24.39;50.40
72560;BME280;62987;52.382;9.752;2022-10-22T10:00:52;100610.41;;;25.67;47.20
72560;BME280;62987;52.382;9.752;2022-10-22T10:03:23;100612.72;;;26.62;44.34
72560;BME280;62987;52.382;9.752;2022-10-22T10:05:55;100609.28;;;26.69;43.88
72560;BME280;62987;52.382;9.752;2022-10-22T10:08:30;100617.75;;;27.38;42.54
72560;BME280;62987;52.382;9.752;2022-10-22T10:11:01;100611.75;;;28.52;39.39
72560;BME280;62987;52.382;9.752;2022-10-22T10:13:42;100625.06;;;28.55;38.62
72560;BME280;62987;52.382;9.752;2022-10-22T10:16:26;100610.09;;;29.99;36.00
72560;BME280;62987;52.382;9.752;2022-10-22T10:19:12;100622.13;;;29.02;37.93
72560;BME280;62987;52.382;9.752;2022-10-22T10:21:48;100613.22;;;32.60;31.29
72560;BME280;62987;52.382;9.752;2022-10-22T10:24:27;100605.22;;;33.31;30.92
72560;BME280;62987;52.382;9.752;2022-10-22T10:27:01;100618.47;;;30.70;33.95
72560;BME280;62987;52.382;9.752;2022-10-22T10:29:40;100615.34;;;31.97;31.98
72560;BME280;62987;52.382;9.752;2022-10-22T10:32:21;100611.81;;;31.34;33.37
72560;BME280;62987;52.382;9.752;2022-10-22T10:35:03;100614.81;;;32.22;30.68
72560;BME280;62987;52.382;9.752;2022-10-22T10:37:42;100605.81;;;33.33;29.57
72560;BME280;62987;52.382;9.752;2022-10-22T10:40:28;100606.81;;;32.27;30.97
72560;BME280;62987;52.382;9.752;2022-10-22T10:43:06;100612.56;;;29.50;35.74
72560;BME280;62987;52.382;9.752;2022-10-22T10:45:42;100621.03;;;27.10;42.23
72560;BME280;62987;52.382;9.752;2022-10-22T10:48:35;100616.03;;;25.40;46.84
72560;BME280;62987;52.382;9.752;2022-10-22T10:51:15;100627.03;;;23.98;50.41
72560;BME280;62987;52.382;9.752;2022-10-22T10:54:03;100628.09;;;24.33;49.94
72560;BME280;62987;52.382;9.752;2022-10-22T10:56:39;100626.72;;;23.74;51.18
72560;BME280;62987;52.382;9.752;2022-10-22T10:59:16;100631.34;;;23.07;53.65
72560;BME280;62987;52.382;9.752;2022-10-22T11:01:58;100642.97;;;22.61;54.88
72560;BME280;62987;52.382;9.752;2022-10-22T11:04:57;100628.97;;;22.27;55.79
72560;BME280;62987;52.382;9.752;2022-10-22T11:07:37;100642.66;;;22.26;56.57
72560;BME280;62987;52.382;9.752;2022-10-22T11:10:15;100641.78;;;21.97;56.69
72560;BME280;62987;52.382;9.752;2022-10-22T11:12:47;100634.34;;;21.99;56.29
72560;BME280;62987;52.382;9.752;2022-10-22T11:15:25;100639.91;;;21.97;57.73
72560;BME280;62987;52.382;9.752;2022-10-22T11:17:58;100635.94;;;22.01;57.10
72560;BME280;62987;52.382;9.752;2022-10-22T11:20:37;100633.38;;;22.09;56.85
72560;BME280;62987;52.382;9.752;2022-10-22T11:23:13;100639.53;;;22.21;56.49
72560;BME280;62987;52.382;9.752;2022-10-22T11:25:48;100626.59;;;21.94;56.56
72560;BME280;62987;52.382;9.752;2022-10-22T11:28:20;100639.59;;;21.90;57.68
72560;BME280;62987;52.382;9.752;2022-10-22T11:30:57;100641.59;;;21.98;56.85
72560;BME280;62987;52.382;9.752;2022-10-22T11:33:32;100640.06;;;22.05;57.16
72560;BME280;62987;52.382;9.752;2022-10-22T11:36:02;100632.47;;;23.24;52.88
72560;BME280;62987;52.382;9.752;2022-10-22T11:38:33;100641.69;;;22.46;54.95
72560;BME280;62987;52.382;9.752;2022-10-22T11:41:05;100643.78;;;22.14;55.98
72560;BME280;62987;52.382;9.752;2022-10-22T11:43:51;100636.53;;;22.43;54.87
72560;BME280;62987;52.382;9.752;2022-10-22T11:46:33;100648.94;;;23.13;53.12
72560;BME280;62987;52.382;9.752;2022-10-22T11:49:13;100642.56;;;22.76;52.57
72560;BME280;62987;52.382;9.752;2022-10-22T11:51:44;100639.38;;;22.32;53.53
72560;BME280;62987;52.382;9.752;2022-10-22T11:54:37;100646.25;;;21.86;54.30
72560;BME280;62987;52.382;9.752;2022-10-22T11:57:18;100653.47;;;21.36;55.21
72560;BME280;62987;52.382;9.752;2022-10-22T11:59:55;100645.47;;;21.35;55.86
72560;BME280;62987;52.382;9.752;2022-10-22T12:05:42;100645.25;;;21.87;53.98
72560;BME280;62987;52.382;9.752;2022-10-22T12:08:24;100646.38;;;22.44;52.33
72560;BME280;62987;52.382;9.752;2022-10-22T12:11:04;100651.41;;;22.49;52.52
72560;BME280;62987;52.382;9.752;2022-10-22T12:13:51;100641.06;;;21.64;54.00
72560;BME280;62987;52.382;9.752;2022-10-22T12:16:24;100646.09;;;21.78;54.05
72560;BME280;62987;52.382;9.752;2022-10-22T12:19:13;100634.84;;;21.43;54.33
72560;BME280;62987;52.382;9.752;2022-10-22T12:21:45;100637.63;;;21.62;53.53
72560;BME280;62987;52.382;9.752;2022-10-22T12:24:16;100642.59;;;21.57;54.01
72560;BME280;62987;52.382;9.752;2022-10-22T12:26:47;100639.13;;;21.85;53.27
72560;BME280;62987;52.382;9.752;2022-10-22T12:29:20;100642.94;;;22.04;52.89
72560;BME280;62987;52.382;9.752;2022-10-22T12:31:49;100635.84;;;21.91;53.33
72560;BME280;62987;52.382;9.752;2022-10-22T12:34:21;100635.91;;;21.61;53.85
72560;BME280;62987;52.382;9.752;2022-10-22T12:36:52;100638.31;;;21.24;54.81
72560;BME280;62987;52.382;9.752;2022-10-22T12:39:24;100636.69;;;21.42;54.99
72560;BME280;62987;52.382;9.752;2022-10-22T12:41:54;100631.09;;;21.13;55.79
72560;BME280;62987;52.382;9.752;2022-10-22T12:44:22;100635.06;;;21.09;55.45
72560;BME280;62987;52.382;9.752;2022-10-22T12:46:50;100629.75;;;21.19;55.92
72560;BME280;62987;52.382;9.752;2022-10-22T12:49:29;100632.81;;;21.14;55.74
72560;BME280;62987;52.382;9.752;2022-10-22T12:52:02;100632.56;;;21.38;55.44
72560;BME280;62987;52.382;9.752;2022-10-22T12:54:37;100625.41;;;21.68;54.69
72560;BME280;62987;52.382;9.752;2022-10-22T12:57:12;100632.94;;;21.64;54.09
72560;BME280;62987;52.382;9.752;2022-10-22T12:59:42;100624.81;;;21.64;54.58
72560;BME280;62987;52.382;9.752;2022-10-22T13:02:18;100630.25;;;21.74;54.59
72560;BME280;62987;52.382;9.752;2022-10-22T13:05:16;100627.38;;;21.66;55.00
72560;BME280;62987;52.382;9.752;2022-10-22T13:07:49;100627.47;;;21.54;54.28
72560;BME280;62987;52.382;9.752;2022-10-22T13:10:23;100630.06;;;21.26;54.10
72560;BME280;62987;52.382;9.752;2022-10-22T13:12:55;100632.88;;;21.45;54.36
72560;BME280;62987;52.382;9.752;2022-10-22T13:15:38;100626.22;;;21.07;55.71
72560;BME280;62987;52.382;9.752;2022-10-22T13:18:16;100628.22;;;21.05;57.06
72560;BME280;62987;52.382;9.752;2022-10-22T13:20:52;100627.47;;;21.03;57.49